sensor_id;sensor_type;location;lat;lon;timestamp;pressure;altitude;pressure_sealevel;temperature;humidity
57847;BME280;43675;50.030;21.952;2023-04-23T00:01:25;98516.39;;;6.00;62.91
57847;BME280;43675;50.030;21.952;2023-04-23T00:03:54;98513.16;;;5.99;63.08
57847;BME280;43675;50.030;21.952;2023-04-23T00:06:21;98510.98;;;5.98;63.06
57847;BME280;43675;50.030;21.952;2023-04-23T00:08:49;98507.85;;;5.96;63.22
57847;BME280;43675;50.030;21.952;2023-04-23T00:11:18;98506.73;;;5.95;63.32
57847;BME280;43675;50.030;21.952;2023-04-23T00:13:45;98502.23;;;6.08;63.24
57847;BME280;43675;50.030;21.952;2023-04-23T00:16:12;98504.70;;;6.17;62.71
57847;BME280;43675;50.030;21.952;2023-04-23T00:18:39;98499.80;;;6.07;62.94
57847;BME280;43675;50.030;21.952;2023-04-23T00:21:05;98503.81;;;6.14;63.00
57847;BME280;43675;50.030;21.952;2023-04-23T00:23:32;98500.08;;;6.10;63.06
57847;BME280;43675;50.030;21.952;2023-04-23T00:25:58;98495.93;;;5.97;63.20
57847;BME280;43675;50.030;21.952;2023-04-23T00:28:25;98499.02;;;5.87;63.46
57847;BME280;43675;50.030;21.952;2023-04-23T00:30:51;98496.85;;;5.79;63.66
57847;BME280;43675;50.030;21.952;2023-04-23T00:33:18;98497.93;;;5.72;63.81
57847;BME280;43675;50.030;21.952;2023-04-23T00:35:45;98493.20;;;5.66;64.06
57847;BME280;43675;50.030;21.952;2023-04-23T00:38:11;98486.38;;;5.61;64.17
57847;BME280;43675;50.030;21.952;2023-04-23T00:40:38;98486.37;;;5.57;64.42
57847;BME280;43675;50.030;21.952;2023-04-23T00:43:05;98485.42;;;5.53;64.59
57847;BME280;43675;50.030;21.952;2023-04-23T00:45:33;98484.08;;;5.50;64.60
57847;BME280;43675;50.030;21.952;2023-04-23T00:48:01;98483.37;;;5.48;64.89
57847;BME280;43675;50.030;21.952;2023-04-23T00:50:27;98486.61;;;5.46;64.90
57847;BME280;43675;50.030;21.952;2023-04-23T00:52:54;98483.88;;;5.44;64.74
57847;BME280;43675;50.030;21.952;2023-04-23T00:55:20;98486.09;;;5.41;65.10
57847;BME280;43675;50.030;21.952;2023-04-23T00:57:47;98485.39;;;5.37;65.11
57847;BME280;43675;50.030;21.952;2023-04-23T01:00:14;98483.68;;;5.34;65.16
57847;BME280;43675;50.030;21.952;2023-04-23T01:02:41;98485.61;;;5.31;65.32
57847;BME280;43675;50.030;21.952;2023-04-23T01:05:09;98485.48;;;5.30;65.50
57847;BME280;43675;50.030;21.952;2023-04-23T01:07:36;98484.67;;;5.28;65.68
57847;BME280;43675;50.030;21.952;2023-04-23T01:10:03;98481.96;;;5.25;65.77
57847;BME280;43675;50.030;21.952;2023-04-23T01:12:30;98484.35;;;5.23;65.66
57847;BME280;43675;50.030;21.952;2023-04-23T01:14:57;98484.48;;;5.20;65.88
57847;BME280;43675;50.030;21.952;2023-04-23T01:17:24;98481.05;;;5.18;65.71
57847;BME280;43675;50.030;21.952;2023-04-23T01:19:51;98481.42;;;5.15;65.99
57847;BME280;43675;50.030;21.952;2023-04-23T01:22:17;98482.42;;;5.12;66.20
57847;BME280;43675;50.030;21.952;2023-04-23T01:24:44;98480.56;;;5.12;66.15
57847;BME280;43675;50.030;21.952;2023-04-23T01:27:11;98478.30;;;5.11;66.24
57847;BME280;43675;50.030;21.952;2023-04-23T01:29:38;98477.16;;;5.11;66.15
57847;BME280;43675;50.030;21.952;2023-04-23T01:32:06;98481.70;;;5.10;66.42
57847;BME280;43675;50.030;21.952;2023-04-23T01:34:34;98481.31;;;5.10;66.28
57847;BME280;43675;50.030;21.952;2023-04-23T01:37:04;98483.67;;;5.09;66.45
57847;BME280;43675;50.030;21.952;2023-04-23T01:39:30;98480.76;;;5.07;66.52
57847;BME280;43675;50.030;21.952;2023-04-23T01:41:57;98482.17;;;5.06;66.45
57847;BME280;43675;50.030;21.952;2023-04-23T01:44:24;98480.89;;;5.03;66.71
57847;BME280;43675;50.030;21.952;2023-04-23T01:46:50;98482.19;;;5.01;66.82
57847;BME280;43675;50.030;21.952;2023-04-23T01:49:17;98480.98;;;5.01;66.69
57847;BME280;43675;50.030;21.952;2023-04-23T01:51:43;98482.70;;;5.00;66.78
57847;BME280;43675;50.030;21.952;2023-04-23T01:54:10;98481.54;;;4.99;66.82
57847;BME280;43675;50.030;21.952;2023-04-23T01:56:36;98478.23;;;4.99;67.14
57847;BME280;43675;50.030;21.952;2023-04-23T01:59:03;98477.48;;;4.98;67.07
57847;BME280;43675;50.030;21.952;2023-04-23T02:01:44;98477.02;;;4.96;67.13
57847;BME280;43675;50.030;21.952;2023-04-23T02:04:12;98479.62;;;4.93;67.09
57847;BME280;43675;50.030;21.952;2023-04-23T02:06:44;98476.94;;;4.92;67.02
57847;BME280;43675;50.030;21.952;2023-04-23T02:09:11;98477.63;;;4.92;67.51
57847;BME280;43675;50.030;21.952;2023-04-23T02:11:38;98477.64;;;5.04;66.86
57847;BME280;43675;50.030;21.952;2023-04-23T02:14:05;98474.89;;;5.01;66.91
57847;BME280;43675;50.030;21.952;2023-04-23T02:16:32;98471.54;;;4.94;67.19
57847;BME280;43675;50.030;21.952;2023-04-23T02:18:59;98470.39;;;4.89;67.29
57847;BME280;43675;50.030;21.952;2023-04-23T02:21:25;98468.76;;;4.84;67.41
57847;BME280;43675;50.030;21.952;2023-04-23T02:23:52;98467.83;;;4.78;67.56
57847;BME280;43675;50.030;21.952;2023-04-23T02:26:18;98463.58;;;4.73;67.69
57847;BME280;43675;50.030;21.952;2023-04-23T02:28:45;98464.67;;;4.69;67.65
57847;BME280;43675;50.030;21.952;2023-04-23T02:31:12;98469.38;;;4.66;67.75
57847;BME280;43675;50.030;21.952;2023-04-23T02:33:40;98468.11;;;4.64;68.09
57847;BME280;43675;50.030;21.952;2023-04-23T02:36:07;98467.86;;;4.61;68.19
57847;BME280;43675;50.030;21.952;2023-04-23T02:38:33;98471.02;;;4.59;68.29
57847;BME280;43675;50.030;21.952;2023-04-23T02:41:00;98467.91;;;4.56;68.37
57847;BME280;43675;50.030;21.952;2023-04-23T02:43:26;98465.75;;;4.54;68.41
57847;BME280;43675;50.030;21.952;2023-04-23T02:45:53;98467.98;;;4.53;68.51
57847;BME280;43675;50.030;21.952;2023-04-23T02:48:19;98465.95;;;4.51;68.55
57847;BME280;43675;50.030;21.952;2023-04-23T02:50:46;98466.05;;;4.50;68.67
57847;BME280;43675;50.030;21.952;2023-04-23T02:53:12;98462.60;;;4.49;68.62
57847;BME280;43675;50.030;21.952;2023-04-23T02:55:39;98460.96;;;4.48;68.87
57847;BME280;43675;50.030;21.952;2023-04-23T02:58:05;98465.48;;;4.47;68.76
57847;BME280;43675;50.030;21.952;2023-04-23T03:00:32;98461.41;;;4.46;69.00
57847;BME280;43675;50.030;21.952;2023-04-23T03:02:58;98461.42;;;4.44;69.00
57847;BME280;43675;50.030;21.952;2023-04-23T03:05:25;98461.98;;;4.42;69.09
57847;BME280;43675;50.030;21.952;2023-04-23T03:07:52;98463.20;;;4.41;69.04
57847;BME280;43675;50.030;21.952;2023-04-23T03:10:18;98463.17;;;4.40;69.22
57847;BME280;43675;50.030;21.952;2023-04-23T03:12:45;98462.09;;;4.40;69.08
57847;BME280;43675;50.030;21.952;2023-04-23T03:15:11;98462.38;;;4.42;69.41
57847;BME280;43675;50.030;21.952;2023-04-23T03:17:38;98458.25;;;4.42;69.28
57847;BME280;43675;50.030;21.952;2023-04-23T03:20:06;98460.27;;;4.43;69.61
57847;BME280;43675;50.030;21.952;2023-04-23T03:22:33;98461.91;;;4.44;69.39
57847;BME280;43675;50.030;21.952;2023-04-23T03:25:00;98464.17;;;4.45;69.56
57847;BME280;43675;50.030;21.952;2023-04-23T03:27:26;98463.70;;;4.46;69.46
57847;BME280;43675;50.030;21.952;2023-04-23T03:29:53;98463.11;;;4.45;69.53
57847;BME280;43675;50.030;21.952;2023-04-23T03:32:19;98463.27;;;4.45;69.61
57847;BME280;43675;50.030;21.952;2023-04-23T03:34:46;98465.16;;;4.45;69.65
57847;BME280;43675;50.030;21.952;2023-04-23T03:37:12;98465.40;;;4.45;69.47
57847;BME280;43675;50.030;21.952;2023-04-23T03:39:39;98468.12;;;4.44;69.43
57847;BME280;43675;50.030;21.952;2023-04-23T03:42:05;98470.10;;;4.44;69.70
57847;BME280;43675;50.030;21.952;2023-04-23T03:44:32;98469.69;;;4.45;69.74
57847;BME280;43675;50.030;21.952;2023-04-23T03:46:58;98468.98;;;4.46;69.82
57847;BME280;43675;50.030;21.952;2023-04-23T03:49:25;98469.90;;;4.47;69.70
57847;BME280;43675;50.030;21.952;2023-04-23T03:51:52;98470.71;;;4.49;69.79
57847;BME280;43675;50.030;21.952;2023-04-23T03:54:18;98472.41;;;4.51;69.60
57847;BME280;43675;50.030;21.952;2023-04-23T03:56:45;98474.22;;;4.54;69.83
57847;BME280;43675;50.030;21.952;2023-04-23T03:59:11;98475.34;;;4.58;69.79
57847;BME280;43675;50.030;21.952;2023-04-23T04:01:38;98476.63;;;4.62;69.70
57847;BME280;43675;50.030;21.952;2023-04-23T04:04:04;98474.23;;;4.67;69.68
57847;BME280;43675;50.030;21.952;2023-04-23T04:06:31;98474.45;;;4.73;69.73
57847;BME280;43675;50.030;21.952;2023-04-23T04:08:58;98471.79;;;4.78;69.58
57847;BME280;43675;50.030;21.952;2023-04-23T04:11:24;98474.36;;;4.86;69.70
57847;BME280;43675;50.030;21.952;2023-04-23T04:13:51;98473.34;;;4.93;69.68
57847;BME280;43675;50.030;21.952;2023-04-23T04:16:17;98469.95;;;5.01;69.79
57847;BME280;43675;50.030;21.952;2023-04-23T04:18:44;98469.58;;;5.10;69.66
57847;BME280;43675;50.030;21.952;2023-04-23T04:21:10;98473.88;;;5.20;69.43
57847;BME280;43675;50.030;21.952;2023-04-23T04:23:37;98476.44;;;5.31;69.40
57847;BME280;43675;50.030;21.952;2023-04-23T04:26:03;98474.80;;;5.41;69.10
57847;BME280;43675;50.030;21.952;2023-04-23T04:28:30;98474.16;;;5.52;69.23
57847;BME280;43675;50.030;21.952;2023-04-23T04:30:56;98471.70;;;5.63;68.81
57847;BME280;43675;50.030;21.952;2023-04-23T04:33:23;98474.13;;;5.75;68.64
57847;BME280;43675;50.030;21.952;2023-04-23T04:35:50;98474.96;;;5.89;68.71
57847;BME280;43675;50.030;21.952;2023-04-23T04:38:16;98478.09;;;6.04;68.37
57847;BME280;43675;50.030;21.952;2023-04-23T04:40:43;98476.58;;;6.17;68.26
57847;BME280;43675;50.030;21.952;2023-04-23T04:43:09;98479.16;;;6.32;68.11
57847;BME280;43675;50.030;21.952;2023-04-23T04:45:36;98478.52;;;6.45;67.86
57847;BME280;43675;50.030;21.952;2023-04-23T04:48:02;98479.02;;;6.58;67.50
57847;BME280;43675;50.030;21.952;2023-04-23T04:50:29;98478.29;;;6.71;67.52
57847;BME280;43675;50.030;21.952;2023-04-23T04:52:55;98476.45;;;6.84;67.16
57847;BME280;43675;50.030;21.952;2023-04-23T04:55:22;98475.90;;;6.96;66.89
57847;BME280;43675;50.030;21.952;2023-04-23T04:57:48;98477.73;;;7.08;66.65
57847;BME280;43675;50.030;21.952;2023-04-23T05:00:23;98473.98;;;7.21;66.45
57847;BME280;43675;50.030;21.952;2023-04-23T05:02:50;98473.38;;;7.32;66.18
57847;BME280;43675;50.030;21.952;2023-04-23T05:05:17;98473.89;;;7.44;65.85
57847;BME280;43675;50.030;21.952;2023-04-23T05:07:44;98473.80;;;7.57;65.77
57847;BME280;43675;50.030;21.952;2023-04-23T05:10:12;98475.36;;;7.70;65.47
57847;BME280;43675;50.030;21.952;2023-04-23T05:12:39;98474.14;;;7.82;65.44
57847;BME280;43675;50.030;21.952;2023-04-23T05:15:07;98475.39;;;7.93;65.10
57847;BME280;43675;50.030;21.952;2023-04-23T05:17:34;98477.06;;;8.05;64.91
57847;BME280;43675;50.030;21.952;2023-04-23T05:20:01;98472.02;;;8.16;64.65
57847;BME280;43675;50.030;21.952;2023-04-23T05:22:27;98473.52;;;8.26;64.47
57847;BME280;43675;50.030;21.952;2023-04-23T05:24:54;98470.17;;;8.37;64.16
57847;BME280;43675;50.030;21.952;2023-04-23T05:27:20;98468.50;;;8.48;64.09
57847;BME280;43675;50.030;21.952;2023-04-23T05:29:47;98467.05;;;8.59;63.74
57847;BME280;43675;50.030;21.952;2023-04-23T05:32:14;98463.63;;;8.68;63.41
57847;BME280;43675;50.030;21.952;2023-04-23T05:34:40;98460.81;;;8.79;63.33
57847;BME280;43675;50.030;21.952;2023-04-23T05:37:07;98460.46;;;8.91;63.14
57847;BME280;43675;50.030;21.952;2023-04-23T05:39:33;98462.25;;;9.01;62.83
57847;BME280;43675;50.030;21.952;2023-04-23T05:42:00;98464.29;;;9.11;62.94
57847;BME280;43675;50.030;21.952;2023-04-23T05:44:26;98464.52;;;9.21;62.62
57847;BME280;43675;50.030;21.952;2023-04-23T05:46:53;98463.07;;;9.31;62.48
57847;BME280;43675;50.030;21.952;2023-04-23T05:49:19;98465.70;;;9.43;62.16
57847;BME280;43675;50.030;21.952;2023-04-23T05:51:46;98460.58;;;9.55;61.98
57847;BME280;43675;50.030;21.952;2023-04-23T05:54:12;98460.89;;;9.67;61.73
57847;BME280;43675;50.030;21.952;2023-04-23T05:56:39;98464.80;;;9.79;61.57
57847;BME280;43675;50.030;21.952;2023-04-23T05:59:05;98464.04;;;9.89;61.63
57847;BME280;43675;50.030;21.952;2023-04-23T06:01:32;98468.09;;;10.01;61.24
57847;BME280;43675;50.030;21.952;2023-04-23T06:03:59;98469.80;;;10.13;61.04
57847;BME280;43675;50.030;21.952;2023-04-23T06:06:25;98471.77;;;10.24;60.80
57847;BME280;43675;50.030;21.952;2023-04-23T06:08:51;98467.89;;;10.35;60.63
57847;BME280;43675;50.030;21.952;2023-04-23T06:11:18;98469.61;;;10.47;60.25
57847;BME280;43675;50.030;21.952;2023-04-23T06:13:45;98470.55;;;10.57;60.01
57847;BME280;43675;50.030;21.952;2023-04-23T06:16:12;98470.16;;;10.70;59.89
57847;BME280;43675;50.030;21.952;2023-04-23T06:18:38;98470.88;;;10.82;59.64
57847;BME280;43675;50.030;21.952;2023-04-23T06:21:05;98471.59;;;10.94;59.43
57847;BME280;43675;50.030;21.952;2023-04-23T06:23:33;98469.70;;;11.05;59.34
57847;BME280;43675;50.030;21.952;2023-04-23T06:25:59;98469.85;;;11.17;59.19
57847;BME280;43675;50.030;21.952;2023-04-23T06:28:26;98466.08;;;11.30;59.09
57847;BME280;43675;50.030;21.952;2023-04-23T06:30:52;98463.64;;;11.44;58.74
57847;BME280;43675;50.030;21.952;2023-04-23T06:33:19;98467.91;;;11.57;58.60
57847;BME280;43675;50.030;21.952;2023-04-23T06:35:45;98462.25;;;11.70;58.54
57847;BME280;43675;50.030;21.952;2023-04-23T06:38:12;98460.27;;;11.81;58.05
57847;BME280;43675;50.030;21.952;2023-04-23T06:40:39;98456.95;;;11.94;57.83
57847;BME280;43675;50.030;21.952;2023-04-23T06:43:05;98457.07;;;12.08;57.58
57847;BME280;43675;50.030;21.952;2023-04-23T06:45:32;98451.19;;;12.20;57.30
57847;BME280;43675;50.030;21.952;2023-04-23T06:47:59;98451.27;;;12.36;57.04
57847;BME280;43675;50.030;21.952;2023-04-23T06:50:25;98451.17;;;12.54;56.68
57847;BME280;43675;50.030;21.952;2023-04-23T06:52:52;98453.20;;;12.69;56.34
57847;BME280;43675;50.030;21.952;2023-04-23T06:55:19;98453.28;;;12.86;55.96
57847;BME280;43675;50.030;21.952;2023-04-23T06:57:45;98450.92;;;12.98;55.70
57847;BME280;43675;50.030;21.952;2023-04-23T07:00:12;98451.88;;;13.09;55.46
57847;BME280;43675;50.030;21.952;2023-04-23T07:02:39;98449.19;;;13.21;54.89
57847;BME280;43675;50.030;21.952;2023-04-23T07:05:06;98446.17;;;13.33;54.75
57847;BME280;43675;50.030;21.952;2023-04-23T07:07:33;98446.87;;;13.48;54.30
57847;BME280;43675;50.030;21.952;2023-04-23T07:10:03;98446.52;;;13.66;53.96
57847;BME280;43675;50.030;21.952;2023-04-23T07:12:30;98442.70;;;13.78;53.71
57847;BME280;43675;50.030;21.952;2023-04-23T07:14:56;98443.86;;;13.90;53.56
57847;BME280;43675;50.030;21.952;2023-04-23T07:17:23;98446.86;;;14.03;53.03
57847;BME280;43675;50.030;21.952;2023-04-23T07:19:49;98445.53;;;14.16;52.83
57847;BME280;43675;50.030;21.952;2023-04-23T07:22:16;98448.48;;;14.33;52.57
57847;BME280;43675;50.030;21.952;2023-04-23T07:24:42;98447.60;;;14.50;52.34
57847;BME280;43675;50.030;21.952;2023-04-23T07:27:09;98442.27;;;14.64;51.61
57847;BME280;43675;50.030;21.952;2023-04-23T07:29:36;98442.81;;;14.78;51.21
57847;BME280;43675;50.030;21.952;2023-04-23T07:32:02;98444.22;;;14.93;50.92
57847;BME280;43675;50.030;21.952;2023-04-23T07:34:29;98440.83;;;15.05;50.47
57847;BME280;43675;50.030;21.952;2023-04-23T07:36:55;98438.80;;;15.19;49.89
57847;BME280;43675;50.030;21.952;2023-04-23T07:39:22;98438.55;;;15.32;49.54
57847;BME280;43675;50.030;21.952;2023-04-23T07:41:48;98431.66;;;15.43;49.01
57847;BME280;43675;50.030;21.952;2023-04-23T07:44:15;98433.83;;;15.53;48.57
57847;BME280;43675;50.030;21.952;2023-04-23T07:46:41;98435.75;;;15.65;48.29
57847;BME280;43675;50.030;21.952;2023-04-23T07:49:08;98430.50;;;15.75;48.04
57847;BME280;43675;50.030;21.952;2023-04-23T07:51:34;98428.38;;;15.83;47.63
57847;BME280;43675;50.030;21.952;2023-04-23T07:54:01;98427.66;;;15.92;47.45
57847;BME280;43675;50.030;21.952;2023-04-23T07:56:27;98421.45;;;15.97;46.92
57847;BME280;43675;50.030;21.952;2023-04-23T07:58:54;98421.00;;;16.02;46.67
57847;BME280;43675;50.030;21.952;2023-04-23T08:01:20;98421.55;;;16.09;46.43
57847;BME280;43675;50.030;21.952;2023-04-23T08:03:47;98418.39;;;16.17;46.31
57847;BME280;43675;50.030;21.952;2023-04-23T08:06:14;98424.17;;;16.28;46.16
57847;BME280;43675;50.030;21.952;2023-04-23T08:08:40;98422.51;;;16.35;45.71
57847;BME280;43675;50.030;21.952;2023-04-23T08:11:07;98423.17;;;16.43;45.32
57847;BME280;43675;50.030;21.952;2023-04-23T08:13:33;98421.67;;;16.52;45.35
57847;BME280;43675;50.030;21.952;2023-04-23T08:16:00;98423.38;;;16.58;45.07
57847;BME280;43675;50.030;21.952;2023-04-23T08:18:26;98422.69;;;16.66;45.13
57847;BME280;43675;50.030;21.952;2023-04-23T08:20:53;98418.41;;;16.75;44.65
57847;BME280;43675;50.030;21.952;2023-04-23T08:23:20;98421.66;;;16.81;44.19
57847;BME280;43675;50.030;21.952;2023-04-23T08:25:47;98422.85;;;16.89;44.10
57847;BME280;43675;50.030;21.952;2023-04-23T08:28:13;98422.21;;;16.98;44.09
57847;BME280;43675;50.030;21.952;2023-04-23T08:30:40;98419.65;;;17.07;43.45
57847;BME280;43675;50.030;21.952;2023-04-23T08:33:07;98416.55;;;17.16;43.36
57847;BME280;43675;50.030;21.952;2023-04-23T08:35:33;98413.13;;;17.25;42.66
57847;BME280;43675;50.030;21.952;2023-04-23T08:38:00;98415.61;;;17.31;42.66
57847;BME280;43675;50.030;21.952;2023-04-23T08:40:29;98412.66;;;17.38;42.51
57847;BME280;43675;50.030;21.952;2023-04-23T08:43:18;98411.16;;;17.47;42.23
57847;BME280;43675;50.030;21.952;2023-04-23T08:45:46;98405.70;;;17.58;42.16
57847;BME280;43675;50.030;21.952;2023-04-23T08:48:13;98410.73;;;17.67;41.73
57847;BME280;43675;50.030;21.952;2023-04-23T08:50:42;98411.08;;;17.70;41.50
57847;BME280;43675;50.030;21.952;2023-04-23T08:53:09;98408.14;;;17.73;41.04
57847;BME280;43675;50.030;21.952;2023-04-23T08:55:36;98401.81;;;17.75;40.91
57847;BME280;43675;50.030;21.952;2023-04-23T08:58:05;98403.45;;;17.82;40.93
57847;BME280;43675;50.030;21.952;2023-04-23T09:00:32;98395.77;;;17.91;40.40
57847;BME280;43675;50.030;21.952;2023-04-23T09:02:58;98401.70;;;18.03;40.52
57847;BME280;43675;50.030;21.952;2023-04-23T09:05:26;98401.29;;;18.13;40.22
57847;BME280;43675;50.030;21.952;2023-04-23T09:07:52;98398.14;;;18.21;40.09
57847;BME280;43675;50.030;21.952;2023-04-23T09:10:19;98402.23;;;18.32;40.01
57847;BME280;43675;50.030;21.952;2023-04-23T09:12:45;98400.70;;;18.41;39.86
57847;BME280;43675;50.030;21.952;2023-04-23T09:15:12;98395.07;;;18.50;39.77
57847;BME280;43675;50.030;21.952;2023-04-23T09:17:41;98396.12;;;18.57;39.46
57847;BME280;43675;50.030;21.952;2023-04-23T09:20:08;98394.86;;;18.64;39.27
57847;BME280;43675;50.030;21.952;2023-04-23T09:22:46;98389.91;;;18.72;38.82
57847;BME280;43675;50.030;21.952;2023-04-23T09:25:15;98384.52;;;18.77;38.54
57847;BME280;43675;50.030;21.952;2023-04-23T09:27:43;98389.79;;;18.83;38.58
57847;BME280;43675;50.030;21.952;2023-04-23T09:30:10;98380.34;;;19.00;38.45
57847;BME280;43675;50.030;21.952;2023-04-23T09:32:39;98379.63;;;19.21;37.75
57847;BME280;43675;50.030;21.952;2023-04-23T09:35:08;98379.70;;;19.30;37.53
57847;BME280;43675;50.030;21.952;2023-04-23T09:37:36;98378.05;;;19.44;37.63
57847;BME280;43675;50.030;21.952;2023-04-23T09:40:05;98374.21;;;19.60;37.58
57847;BME280;43675;50.030;21.952;2023-04-23T09:42:32;98368.96;;;19.75;37.49
57847;BME280;43675;50.030;21.952;2023-04-23T09:45:06;98366.77;;;19.87;37.34
57847;BME280;43675;50.030;21.952;2023-04-23T09:47:36;98365.94;;;19.92;37.34
57847;BME280;43675;50.030;21.952;2023-04-23T09:50:04;98363.88;;;19.97;36.59
57847;BME280;43675;50.030;21.952;2023-04-23T09:52:31;98361.07;;;20.02;36.28
57847;BME280;43675;50.030;21.952;2023-04-23T09:55:01;98361.13;;;20.09;36.31
57847;BME280;43675;50.030;21.952;2023-04-23T09:57:27;98358.41;;;20.07;36.39
57847;BME280;43675;50.030;21.952;2023-04-23T09:59:56;98357.20;;;20.16;36.16
57847;BME280;43675;50.030;21.952;2023-04-23T10:02:26;98353.47;;;20.28;35.78
57847;BME280;43675;50.030;21.952;2023-04-23T10:04:53;98354.15;;;20.40;35.55
57847;BME280;43675;50.030;21.952;2023-04-23T10:07:20;98348.77;;;20.38;35.36
57847;BME280;43675;50.030;21.952;2023-04-23T10:09:47;98341.96;;;20.30;34.70
57847;BME280;43675;50.030;21.952;2023-04-23T10:12:16;98339.73;;;20.27;34.98
57847;BME280;43675;50.030;21.952;2023-04-23T10:14:45;98336.31;;;20.26;34.80
57847;BME280;43675;50.030;21.952;2023-04-23T10:17:12;98333.25;;;20.27;34.92
57847;BME280;43675;50.030;21.952;2023-04-23T10:19:39;98334.02;;;20.28;34.66
57847;BME280;43675;50.030;21.952;2023-04-23T10:22:09;98328.62;;;20.31;34.96
57847;BME280;43675;50.030;21.952;2023-04-23T10:24:39;98327.19;;;20.49;34.66
57847;BME280;43675;50.030;21.952;2023-04-23T10:27:10;98328.48;;;20.69;34.17
57847;BME280;43675;50.030;21.952;2023-04-23T10:29:37;98324.52;;;20.87;33.77
57847;BME280;43675;50.030;21.952;2023-04-23T10:32:04;98320.18;;;20.99;33.47
57847;BME280;43675;50.030;21.952;2023-04-23T10:34:32;98316.32;;;21.08;33.18
57847;BME280;43675;50.030;21.952;2023-04-23T10:37:00;98318.41;;;21.18;32.86
57847;BME280;43675;50.030;21.952;2023-04-23T10:39:29;98319.31;;;21.29;32.87
57847;BME280;43675;50.030;21.952;2023-04-23T10:41:57;98315.83;;;21.36;32.17
57847;BME280;43675;50.030;21.952;2023-04-23T10:44:32;98312.36;;;21.38;31.82
57847;BME280;43675;50.030;21.952;2023-04-23T10:46:58;98311.70;;;21.35;31.28
57847;BME280;43675;50.030;21.952;2023-04-23T10:49:29;98311.58;;;21.32;31.47
57847;BME280;43675;50.030;21.952;2023-04-23T10:52:00;98303.60;;;21.36;31.51
57847;BME280;43675;50.030;21.952;2023-04-23T10:54:28;98306.89;;;21.44;31.45
57847;BME280;43675;50.030;21.952;2023-04-23T10:57:03;98299.30;;;21.51;31.03
57847;BME280;43675;50.030;21.952;2023-04-23T10:59:31;98300.16;;;21.60;30.81
57847;BME280;43675;50.030;21.952;2023-04-23T11:04:32;98295.65;;;21.74;30.61
57847;BME280;43675;50.030;21.952;2023-04-23T11:07:07;98295.69;;;21.70;31.00
57847;BME280;43675;50.030;21.952;2023-04-23T11:09:46;98296.50;;;21.67;30.97
57847;BME280;43675;50.030;21.952;2023-04-23T11:12:30;98295.16;;;21.62;30.57
57847;BME280;43675;50.030;21.952;2023-04-23T11:14:58;98293.39;;;21.60;30.65
57847;BME280;43675;50.030;21.952;2023-04-23T11:22:36;98286.94;;;22.01;29.99
57847;BME280;43675;50.030;21.952;2023-04-23T11:25:03;98288.54;;;22.17;30.07
57847;BME280;43675;50.030;21.952;2023-04-23T11:27:30;98285.35;;;22.31;29.62
57847;BME280;43675;50.030;21.952;2023-04-23T11:29:57;98283.48;;;22.44;29.81
57847;BME280;43675;50.030;21.952;2023-04-23T11:32:24;98282.27;;;22.60;30.17
57847;BME280;43675;50.030;21.952;2023-04-23T11:34:54;98280.75;;;22.65;29.92
57847;BME280;43675;50.030;21.952;2023-04-23T11:37:20;98275.30;;;22.61;29.48
57847;BME280;43675;50.030;21.952;2023-04-23T11:39:47;98275.84;;;22.57;29.26
57847;BME280;43675;50.030;21.952;2023-04-23T11:42:15;98276.20;;;22.54;29.26
57847;BME280;43675;50.030;21.952;2023-04-23T11:44:43;98276.48;;;22.55;29.47
57847;BME280;43675;50.030;21.952;2023-04-23T11:47:14;98276.98;;;22.62;29.52
57847;BME280;43675;50.030;21.952;2023-04-23T11:49:42;98279.16;;;22.69;29.32
57847;BME280;43675;50.030;21.952;2023-04-23T11:52:10;98266.83;;;22.77;28.76
57847;BME280;43675;50.030;21.952;2023-04-23T11:54:39;98265.87;;;22.80;29.10
57847;BME280;43675;50.030;21.952;2023-04-23T11:57:06;98263.03;;;22.86;28.79
57847;BME280;43675;50.030;21.952;2023-04-23T11:59:33;98262.51;;;22.87;28.62
57847;BME280;43675;50.030;21.952;2023-04-23T12:01:59;98259.34;;;22.87;28.49
57847;BME280;43675;50.030;21.952;2023-04-23T12:04:28;98257.15;;;22.84;28.42
57847;BME280;43675;50.030;21.952;2023-04-23T12:06:56;98253.61;;;22.81;28.31
57847;BME280;43675;50.030;21.952;2023-04-23T12:09:25;98252.57;;;22.83;27.94
57847;BME280;43675;50.030;21.952;2023-04-23T12:11:52;98254.22;;;22.80;28.25
57847;BME280;43675;50.030;21.952;2023-04-23T12:14:24;98247.81;;;22.78;28.16
57847;BME280;43675;50.030;21.952;2023-04-23T12:16:51;98245.42;;;22.72;28.53
57847;BME280;43675;50.030;21.952;2023-04-23T12:19:28;98248.66;;;22.64;28.26
57847;BME280;43675;50.030;21.952;2023-04-23T12:21:58;98244.21;;;22.59;28.14
57847;BME280;43675;50.030;21.952;2023-04-23T12:24:30;98242.68;;;22.58;28.21
57847;BME280;43675;50.030;21.952;2023-04-23T12:26:59;98239.86;;;22.61;27.89
57847;BME280;43675;50.030;21.952;2023-04-23T12:29:26;98236.54;;;22.66;27.56
57847;BME280;43675;50.030;21.952;2023-04-23T12:31:57;98238.31;;;22.68;27.70
57847;BME280;43675;50.030;21.952;2023-04-23T12:34:24;98229.73;;;22.67;27.44
57847;BME280;43675;50.030;21.952;2023-04-23T12:36:53;98228.88;;;22.63;27.31
57847;BME280;43675;50.030;21.952;2023-04-23T12:39:30;98224.95;;;22.65;27.62
57847;BME280;43675;50.030;21.952;2023-04-23T12:41:58;98224.94;;;22.73;28.07
57847;BME280;43675;50.030;21.952;2023-04-23T12:44:25;98220.91;;;22.80;27.13
57847;BME280;43675;50.030;21.952;2023-04-23T12:46:57;98219.14;;;22.83;26.56
57847;BME280;43675;50.030;21.952;2023-04-23T12:49:25;98217.27;;;22.82;26.26
57847;BME280;43675;50.030;21.952;2023-04-23T12:51:53;98212.77;;;22.81;26.45
57847;BME280;43675;50.030;21.952;2023-04-23T12:54:20;98207.65;;;22.83;26.78
57847;BME280;43675;50.030;21.952;2023-04-23T12:56:46;98205.33;;;22.80;26.33
57847;BME280;43675;50.030;21.952;2023-04-23T12:59:13;98204.84;;;22.65;26.29
57847;BME280;43675;50.030;21.952;2023-04-23T13:01:39;98205.60;;;22.53;26.50
57847;BME280;43675;50.030;21.952;2023-04-23T13:04:06;98206.47;;;22.48;26.75